TAPAMDST

Guest
Details From TAPA - Antigua - V C Bird Intl
To MDST - Santiago Cibao Intl
Flight Number -
Tags Decoded
Created
Modified
Stats Distance 1,474 nm / 2,730 km
Max Altitude 0 ft / 0 m
Waypoints 6
Social Downloads 0
Likes 0
Share VATSIM

Download

Looking for another format? Having issues loading an existing format? Contact us
Advertisement - Login to hide

Notes

Decoded

Route

TAPA KOBET BQN PJM ANU MDST

ID Type Via Altitude Latitude Longitude Leg Dist Tot Dist Heading (true) Name
O TAPA APT - 0 ft / 0 m 17.13024˚ -61.80367˚ - 0 nm - -
KOBET FIX - 0 ft / 0 m 19.45833˚ -69.71778˚ 472 nm 472 nm 288° / 286° -
BQN VOR - 0 ft / 0 m 18.49800˚ -67.10836˚ 159 nm 631 nm 111° / 112° BORINQUEN VORTAC
PJM VOR - 0 ft / 0 m 18.03811˚ -63.11828˚ 229 nm 860 nm 96° / 98° ST MAARTEN VOR-DME
ANU NDB - 0 ft / 0 m 17.12625˚ -61.81075˚ 92 nm 953 nm 126° / 126° -
O MDST APT - 0 ft / 0 m 19.40876˚ -70.61689˚ 520 nm 1473 nm 287° / 284° -

Altitude Profile

Advertisement - Login to hide

Weather


0- 5 10 15 20 25 30 35+ Temperature / ° C

Clouds and Precipitation
Forecast for 2017-12-12 18:00 UTC. Updated 40 minutes ago

Ground ~20,000 ft ~40,000 ft Winds

TAPA

Details ICAO TAPA (ANU)
Name Antigua - V C Bird Intl
Region Antigua and Barbuda
Timezone America/Antigua (UTC-4.0)
Stats Elevation 62 ft / 19 m (AMSL)
Location 17.136737° -61.792662°
Runways 1
Magnetic Variation 14.766° W

METAR

TAPA 121800Z 17005KT 9999 FEW021 29/20 Q1012 NOSIG

Decode

TAF

TAF TAPA 120500Z 1212/1312 14007KT 9999 SCT018 PROB30 TEMPO 1212/1216 SHRA

Decode

Departure Runways

ID Width Length Bearing (true) Bearing (mag) Surface Threshold Offset Overrun Length
07 148 ft / 45 m 9,022 ft / 2,750 m 58.28° 73.05° Asphalt 656 ft / 200 m 0 ft / 0 m
25 148 ft / 45 m 9,022 ft / 2,750 m 238.29° 253.06° Asphalt 0 ft / 0 m 0 ft / 0 m

MDST

Details ICAO MDST (STI)
Name Santiago Cibao Intl
Region Dominican Republic
Timezone America/Santo_Domingo (UTC-4.0)
Stats Elevation 563 ft / 172 m (AMSL)
Location 19.406091° -70.604689°
Runways 1
Magnetic Variation 11.171° W

METAR

MDST 121700Z 15010KT 110V180 9999 FEW022 BKN300 28/17 Q1012

Decode

TAF

Not found

Destination Runways

ID Width Length Bearing (true) Bearing (mag) Surface Threshold Offset Overrun Length
11 148 ft / 45 m 8,619 ft / 2,627 m 103.07° 114.24° Asphalt 0 ft / 0 m 200 ft / 61 m
29 148 ft / 45 m 8,619 ft / 2,627 m 283.08° 294.25° Asphalt 0 ft / 0 m 200 ft / 61 m

Approach Navaids

Runway Type Ident Frequency Range Bearing (true) Bearing (mag) Slope Elevation
11 Localiser EXP 109.30 MHz 18 nm / 33 km 103.11° 114.28° - 565 ft / 172 m (AMSL)
11 Glidescope EXP 109.30 MHz 10 nm / 19 km 103.08° 114.25° 2.80° 565 ft / 172 m (AMSL)
11 DME EXP 109.30 MHz 18 nm / 33 km - - - 563 ft / 172 m (AMSL)